This is the latest recevied weather packets stored in our database for station/object DC1NF-7. If no packets are shown the sender has not sent any weather packets the latest 1 day(s).
| Time | Temp. | Humidity | Pressure | Rain* | Wind** | Luminosity | Snow |
|---|---|---|---|---|---|---|---|
| 1777980366 | 23.33° C | 44% | 1007.2 hPa | 0 mm | 0.45 m/s, 202° | 983 W/m² | - |
| 1777979762 | 22.78° C | 45% | 1007.3 hPa | 0 mm | 0.89 m/s, 235° | 806 W/m² | - |
| 1777979164 | 23.89° C | 45% | 1007.3 hPa | 0 mm | 0.45 m/s, 214° | 758 W/m² | - |
| 1777978555 | 22.22° C | 47% | 1007.5 hPa | 0 mm | 0.45 m/s, 146° | 507 W/m² | - |
| 1777977949 | 22.22° C | 49% | 1007.6 hPa | 0 mm | 1.34 m/s, 75° | 446 W/m² | - |
| 1777977345 | 23.33° C | 46% | 1007.6 hPa | 0 mm | 0.45 m/s, 171° | 609 W/m² | - |
| 1777976741 | 22.22° C | 47% | 1007.7 hPa | 0 mm | 0.89 m/s, 200° | 837 W/m² | - |
| 1777976139 | 22.22° C | 49% | 1007.8 hPa | 0 mm | 1.34 m/s, 72° | 780 W/m² | - |
| 1777975535 | 22.22° C | 52% | 1007.9 hPa | 0 mm | 1.34 m/s, 88° | 664 W/m² | - |
| 1777974928 | 21.67° C | 53% | 1007.9 hPa | 0 mm | 0.89 m/s, 79° | 837 W/m² | - |
| 1777974324 | 21.11° C | 55% | 1008.1 hPa | 0 mm | 1.34 m/s, 86° | 655 W/m² | - |
| 1777973720 | 21.67° C | 55% | 1008.1 hPa | 0 mm | 1.79 m/s, 74° | 760 W/m² | - |
| 1777973117 | 22.22° C | 54% | 1008.3 hPa | 0 mm | 0.89 m/s, 67° | 769 W/m² | - |
| 1777972577 | 21.11° C | 56% | 1008.5 hPa | 0 mm | 1.79 m/s, 77° | 778 W/m² | - |
| 1777971970 | 21.67° C | 56% | 1008.5 hPa | 0 mm | 1.34 m/s, 74° | 783 W/m² | - |
| 1777971366 | 20.56° C | 59% | 1008.7 hPa | 0 mm | 0.45 m/s, 110° | 782 W/m² | - |
| 1777970765 | 20.56° C | 59% | 1008.6 hPa | 0 mm | 0.89 m/s, 73° | 652 W/m² | - |
| 1777970158 | 20.56° C | 59% | 1008.8 hPa | 0 mm | 0.89 m/s, 89° | 749 W/m² | - |
| 1777969555 | 20° C | 61% | 1009 hPa | 0 mm | 0.89 m/s, 84° | 696 W/m² | - |
| 1777968955 | 18.89° C | 65% | 1008.9 hPa | 0 mm | 0.45 m/s, 194° | 418 W/m² | - |
| 1777968349 | 18.33° C | 66% | 1009 hPa | 0 mm | 0.45 m/s, 212° | 225 W/m² | - |
| 1777967745 | 18.89° C | 65% | 1009.1 hPa | 0 mm | 0.45 m/s, 184° | 240 W/m² | - |
| 1777967146 | 19.44° C | 64% | 1009.3 hPa | 0 mm | 0.45 m/s, 229° | 445 W/m² | - |
| 1777966542 | 18.33° C | 65% | 1009.2 hPa | 0 mm | 0.45 m/s, 237° | 545 W/m² | - |
| 1777965934 | 18.89° C | 65% | 1009.5 hPa | 0 mm | 0.45 m/s, 231° | 518 W/m² | - |
* Rain latest hour (hover to see other rain measurements)
** Current wind speed in m/s (hover to see current wind gust speed)